sensor_id;sensor_type;location;lat;lon;timestamp;pressure;altitude;pressure_sealevel;temperature;humidity
30421;BME280;17218;54.070;10.012;2023-04-21T00:01:17;102027.06;;;7.73;100.00
30421;BME280;17218;54.070;10.012;2023-04-21T00:03:43;102022.66;;;7.69;100.00
30421;BME280;17218;54.070;10.012;2023-04-21T00:06:11;102025.16;;;7.66;100.00
30421;BME280;17218;54.070;10.012;2023-04-21T00:08:39;102024.25;;;7.64;100.00
30421;BME280;17218;54.070;10.012;2023-04-21T00:11:05;102019.97;;;7.64;100.00
30421;BME280;17218;54.070;10.012;2023-04-21T00:13:33;102013.06;;;7.63;100.00
30421;BME280;17218;54.070;10.012;2023-04-21T00:16:00;102014.81;;;7.64;100.00
30421;BME280;17218;54.070;10.012;2023-04-21T00:18:26;102017.22;;;7.58;100.00
30421;BME280;17218;54.070;10.012;2023-04-21T00:20:53;102016.41;;;7.59;100.00
30421;BME280;17218;54.070;10.012;2023-04-21T00:23:20;102007.84;;;7.62;100.00
30421;BME280;17218;54.070;10.012;2023-04-21T00:25:46;102010.59;;;7.68;100.00
30421;BME280;17218;54.070;10.012;2023-04-21T00:28:13;102008.06;;;7.70;100.00
30421;BME280;17218;54.070;10.012;2023-04-21T00:30:41;102008.91;;;7.69;100.00
30421;BME280;17218;54.070;10.012;2023-04-21T00:33:07;102012.22;;;7.64;100.00
30421;BME280;17218;54.070;10.012;2023-04-21T00:35:34;102003.66;;;7.66;100.00
30421;BME280;17218;54.070;10.012;2023-04-21T00:38:00;101998.41;;;7.62;100.00
30421;BME280;17218;54.070;10.012;2023-04-21T00:40:27;102000.28;;;7.68;100.00
30421;BME280;17218;54.070;10.012;2023-04-21T00:42:53;101992.34;;;7.60;100.00
30421;BME280;17218;54.070;10.012;2023-04-21T00:45:20;102001.00;;;7.62;100.00
30421;BME280;17218;54.070;10.012;2023-04-21T00:47:48;101996.75;;;7.64;100.00
30421;BME280;17218;54.070;10.012;2023-04-21T00:50:14;102000.13;;;7.62;100.00
30421;BME280;17218;54.070;10.012;2023-04-21T00:52:41;101985.50;;;7.61;100.00
30421;BME280;17218;54.070;10.012;2023-04-21T00:55:09;101988.94;;;7.61;100.00
30421;BME280;17218;54.070;10.012;2023-04-21T00:57:36;101987.09;;;7.56;100.00
30421;BME280;17218;54.070;10.012;2023-04-21T01:00:03;101990.22;;;7.44;100.00
30421;BME280;17218;54.070;10.012;2023-04-21T01:02:34;101986.00;;;7.47;100.00
30421;BME280;17218;54.070;10.012;2023-04-21T01:05:04;101984.38;;;7.51;100.00
30421;BME280;17218;54.070;10.012;2023-04-21T01:07:33;101987.13;;;7.57;100.00
30421;BME280;17218;54.070;10.012;2023-04-21T01:09:59;101985.50;;;7.61;100.00
30421;BME280;17218;54.070;10.012;2023-04-21T01:12:26;101993.94;;;7.55;100.00
30421;BME280;17218;54.070;10.012;2023-04-21T01:14:52;101982.69;;;7.51;100.00
30421;BME280;17218;54.070;10.012;2023-04-21T01:17:19;101987.91;;;7.55;100.00
30421;BME280;17218;54.070;10.012;2023-04-21T01:19:45;101980.13;;;7.53;100.00
30421;BME280;17218;54.070;10.012;2023-04-21T01:22:13;101980.22;;;7.56;100.00
30421;BME280;17218;54.070;10.012;2023-04-21T01:24:42;101982.00;;;7.59;100.00
30421;BME280;17218;54.070;10.012;2023-04-21T01:27:09;101982.88;;;7.59;100.00
30421;BME280;17218;54.070;10.012;2023-04-21T01:29:36;101980.13;;;7.53;100.00
30421;BME280;17218;54.070;10.012;2023-04-21T01:32:05;101986.28;;;7.58;100.00
30421;BME280;17218;54.070;10.012;2023-04-21T01:34:32;101979.41;;;7.59;100.00
30421;BME280;17218;54.070;10.012;2023-04-21T01:36:59;101968.91;;;7.51;100.00
30421;BME280;17218;54.070;10.012;2023-04-21T01:39:27;101972.97;;;7.41;100.00
30421;BME280;17218;54.070;10.012;2023-04-21T01:41:54;101969.75;;;7.50;100.00
30421;BME280;17218;54.070;10.012;2023-04-21T01:44:22;101972.41;;;7.53;100.00
30421;BME280;17218;54.070;10.012;2023-04-21T01:46:49;101970.88;;;7.60;100.00
30421;BME280;17218;54.070;10.012;2023-04-21T01:49:16;101975.97;;;7.58;100.00
30421;BME280;17218;54.070;10.012;2023-04-21T01:51:42;101974.16;;;7.54;100.00
30421;BME280;17218;54.070;10.012;2023-04-21T01:54:09;101962.91;;;7.50;100.00
30421;BME280;17218;54.070;10.012;2023-04-21T01:56:36;101965.94;;;7.35;100.00
30421;BME280;17218;54.070;10.012;2023-04-21T01:59:03;101968.72;;;7.43;100.00
30421;BME280;17218;54.070;10.012;2023-04-21T02:01:29;101962.72;;;7.44;100.00
30421;BME280;17218;54.070;10.012;2023-04-21T02:03:56;101973.19;;;7.49;100.00
30421;BME280;17218;54.070;10.012;2023-04-21T02:06:22;101964.31;;;7.39;100.00
30421;BME280;17218;54.070;10.012;2023-04-21T02:08:49;101962.66;;;7.41;100.00
30421;BME280;17218;54.070;10.012;2023-04-21T02:11:15;101962.72;;;7.44;100.00
30421;BME280;17218;54.070;10.012;2023-04-21T02:13:43;101963.69;;;7.48;100.00
30421;BME280;17218;54.070;10.012;2023-04-21T02:16:10;101961.00;;;7.43;100.00
30421;BME280;17218;54.070;10.012;2023-04-21T02:18:37;101970.28;;;7.38;100.00
30421;BME280;17218;54.070;10.012;2023-04-21T02:21:04;101961.81;;;7.42;100.00
30421;BME280;17218;54.070;10.012;2023-04-21T02:23:31;101964.44;;;7.44;100.00
30421;BME280;17218;54.070;10.012;2023-04-21T02:25:58;101961.88;;;7.45;100.00
30421;BME280;17218;54.070;10.012;2023-04-21T02:28:24;101963.69;;;7.48;100.00
30421;BME280;17218;54.070;10.012;2023-04-21T02:30:52;101957.75;;;7.50;100.00
30421;BME280;17218;54.070;10.012;2023-04-21T02:33:18;101955.06;;;7.47;100.00
30421;BME280;17218;54.070;10.012;2023-04-21T02:35:45;101957.78;;;7.52;100.00
30421;BME280;17218;54.070;10.012;2023-04-21T02:38:12;101952.59;;;7.50;100.00
30421;BME280;17218;54.070;10.012;2023-04-21T02:40:38;101953.44;;;7.51;100.00
30421;BME280;17218;54.070;10.012;2023-04-21T02:43:05;101951.69;;;7.50;100.00
30421;BME280;17218;54.070;10.012;2023-04-21T02:45:31;101943.78;;;7.44;100.00
30421;BME280;17218;54.070;10.012;2023-04-21T02:47:59;101942.94;;;7.43;100.00
30421;BME280;17218;54.070;10.012;2023-04-21T02:50:26;101944.56;;;7.39;100.00
30421;BME280;17218;54.070;10.012;2023-04-21T02:52:52;101943.66;;;7.37;100.00
30421;BME280;17218;54.070;10.012;2023-04-21T02:55:19;101950.72;;;7.45;100.00
30421;BME280;17218;54.070;10.012;2023-04-21T02:57:46;101944.69;;;7.44;100.00
30421;BME280;17218;54.070;10.012;2023-04-21T03:00:13;101943.78;;;7.44;100.00
30421;BME280;17218;54.070;10.012;2023-04-21T03:02:40;101939.56;;;7.46;100.00
30421;BME280;17218;54.070;10.012;2023-04-21T03:05:08;101940.47;;;7.48;100.00
30421;BME280;17218;54.070;10.012;2023-04-21T03:07:35;101940.47;;;7.48;100.00
30421;BME280;17218;54.070;10.012;2023-04-21T03:10:01;101936.06;;;7.44;100.00
30421;BME280;17218;54.070;10.012;2023-04-21T03:12:28;101935.22;;;7.43;100.00
30421;BME280;17218;54.070;10.012;2023-04-21T03:14:54;101932.53;;;7.40;100.00
30421;BME280;17218;54.070;10.012;2023-04-21T03:17:21;101931.69;;;7.39;100.00
30421;BME280;17218;54.070;10.012;2023-04-21T03:19:47;101935.06;;;7.37;100.00
30421;BME280;17218;54.070;10.012;2023-04-21T03:22:15;101929.84;;;7.35;100.00
30421;BME280;17218;54.070;10.012;2023-04-21T03:24:42;101937.59;;;7.35;100.00
30421;BME280;17218;54.070;10.012;2023-04-21T03:27:08;101929.19;;;7.43;100.00
30421;BME280;17218;54.070;10.012;2023-04-21T03:29:35;101931.84;;;7.47;100.00
30421;BME280;17218;54.070;10.012;2023-04-21T03:32:01;101935.31;;;7.48;100.00
30421;BME280;17218;54.070;10.012;2023-04-21T03:34:27;101922.34;;;7.45;100.00
30421;BME280;17218;54.070;10.012;2023-04-21T03:36:54;101926.63;;;7.44;100.00
30421;BME280;17218;54.070;10.012;2023-04-21T03:39:22;101933.53;;;7.45;100.00
30421;BME280;17218;54.070;10.012;2023-04-21T03:41:49;101929.34;;;7.49;100.00
30421;BME280;17218;54.070;10.012;2023-04-21T03:44:15;101932.75;;;7.48;100.00
30421;BME280;17218;54.070;10.012;2023-04-21T03:46:42;101938.50;;;7.37;100.00
30421;BME280;17218;54.070;10.012;2023-04-21T03:49:08;101938.28;;;7.28;100.00
30421;BME280;17218;54.070;10.012;2023-04-21T03:51:35;101935.56;;;7.23;100.00
30421;BME280;17218;54.070;10.012;2023-04-21T03:54:01;101932.97;;;7.23;100.00
30421;BME280;17218;54.070;10.012;2023-04-21T03:56:29;101932.22;;;7.27;100.00
30421;BME280;17218;54.070;10.012;2023-04-21T03:58:55;101923.56;;;7.24;100.00
30421;BME280;17218;54.070;10.012;2023-04-21T04:01:22;101924.50;;;7.27;100.00
30421;BME280;17218;54.070;10.012;2023-04-21T04:03:48;101921.13;;;7.30;100.00
30421;BME280;17218;54.070;10.012;2023-04-21T04:06:15;101915.94;;;7.28;100.00
30421;BME280;17218;54.070;10.012;2023-04-21T04:08:41;101916.81;;;7.29;100.00
30421;BME280;17218;54.070;10.012;2023-04-21T04:11:08;101917.53;;;7.25;100.00
30421;BME280;17218;54.070;10.012;2023-04-21T04:13:36;101908.16;;;7.27;100.00
30421;BME280;17218;54.070;10.012;2023-04-21T04:16:02;101915.75;;;7.21;100.00
30421;BME280;17218;54.070;10.012;2023-04-21T04:18:29;101917.44;;;7.20;100.00
30421;BME280;17218;54.070;10.012;2023-04-21T04:20:55;101906.34;;;7.23;100.00
30421;BME280;17218;54.070;10.012;2023-04-21T04:23:22;101914.09;;;7.23;100.00
30421;BME280;17218;54.070;10.012;2023-04-21T04:25:48;101913.13;;;7.19;100.00
30421;BME280;17218;54.070;10.012;2023-04-21T04:28:15;101915.84;;;7.25;100.00
30421;BME280;17218;54.070;10.012;2023-04-21T04:30:43;101912.63;;;7.34;100.00
30421;BME280;17218;54.070;10.012;2023-04-21T04:33:10;101913.53;;;7.36;100.00
30421;BME280;17218;54.070;10.012;2023-04-21T04:35:37;101920.31;;;7.33;100.00
30421;BME280;17218;54.070;10.012;2023-04-21T04:38:03;101926.44;;;7.36;100.00
30421;BME280;17218;54.070;10.012;2023-04-21T04:40:31;101914.59;;;7.43;100.00
30421;BME280;17218;54.070;10.012;2023-04-21T04:42:58;101914.00;;;7.55;100.00
30421;BME280;17218;54.070;10.012;2023-04-21T04:45:26;101908.97;;;7.60;100.00
30421;BME280;17218;54.070;10.012;2023-04-21T04:47:58;101918.19;;;7.50;100.00
30421;BME280;17218;54.070;10.012;2023-04-21T04:50:25;101919.81;;;7.46;100.00
30421;BME280;17218;54.070;10.012;2023-04-21T04:52:51;101916.63;;;7.57;100.00
30421;BME280;17218;54.070;10.012;2023-04-21T04:55:18;101917.56;;;7.60;100.00
30421;BME280;17218;54.070;10.012;2023-04-21T04:57:44;101910.63;;;7.58;100.00
30421;BME280;17218;54.070;10.012;2023-04-21T05:00:11;101916.66;;;7.58;100.00
30421;BME280;17218;54.070;10.012;2023-04-21T05:02:38;101913.91;;;7.50;100.00
30421;BME280;17218;54.070;10.012;2023-04-21T05:05:06;101918.44;;;7.61;100.00
30421;BME280;17218;54.070;10.012;2023-04-21T05:07:33;101917.81;;;7.71;100.00
30421;BME280;17218;54.070;10.012;2023-04-21T05:10:00;101918.88;;;7.80;100.00
30421;BME280;17218;54.070;10.012;2023-04-21T05:12:28;101913.84;;;7.86;100.00
30421;BME280;17218;54.070;10.012;2023-04-21T05:14:54;101915.75;;;7.93;100.00
30421;BME280;17218;54.070;10.012;2023-04-21T05:17:21;101926.16;;;7.98;100.00
30421;BME280;17218;54.070;10.012;2023-04-21T05:19:47;101920.03;;;7.93;100.00
30421;BME280;17218;54.070;10.012;2023-04-21T05:22:15;101919.38;;;8.02;100.00
30421;BME280;17218;54.070;10.012;2023-04-21T05:24:42;101932.44;;;8.09;100.00
30421;BME280;17218;54.070;10.012;2023-04-21T05:27:09;101926.34;;;8.06;100.00
30421;BME280;17218;54.070;10.012;2023-04-21T05:29:35;101922.19;;;8.13;100.00
30421;BME280;17218;54.070;10.012;2023-04-21T05:32:01;101919.66;;;8.16;100.00
30421;BME280;17218;54.070;10.012;2023-04-21T05:34:28;101916.47;;;8.26;100.00
30421;BME280;17218;54.070;10.012;2023-04-21T05:36:54;101914.06;;;8.35;100.00
30421;BME280;17218;54.070;10.012;2023-04-21T05:39:22;101902.16;;;8.42;100.00
30421;BME280;17218;54.070;10.012;2023-04-21T05:41:49;101915.22;;;8.50;100.00
30421;BME280;17218;54.070;10.012;2023-04-21T05:44:15;101916.19;;;8.55;100.00
30421;BME280;17218;54.070;10.012;2023-04-21T05:46:42;101907.78;;;8.64;100.00
30421;BME280;17218;54.070;10.012;2023-04-21T05:49:09;101914.69;;;8.65;100.00
30421;BME280;17218;54.070;10.012;2023-04-21T05:51:35;101926.00;;;8.72;100.00
30421;BME280;17218;54.070;10.012;2023-04-21T05:54:02;101918.34;;;8.77;100.00
30421;BME280;17218;54.070;10.012;2023-04-21T05:56:30;101915.97;;;8.88;100.00
30421;BME280;17218;54.070;10.012;2023-04-21T05:58:56;101915.28;;;8.97;100.00
30421;BME280;17218;54.070;10.012;2023-04-21T06:01:22;101913.53;;;8.97;100.00
30421;BME280;17218;54.070;10.012;2023-04-21T06:03:49;101909.41;;;9.05;100.00
30421;BME280;17218;54.070;10.012;2023-04-21T06:06:16;101906.97;;;9.13;100.00
30421;BME280;17218;54.070;10.012;2023-04-21T06:08:43;101901.13;;;9.25;100.00
30421;BME280;17218;54.070;10.012;2023-04-21T06:11:09;101906.28;;;9.25;100.00
30421;BME280;17218;54.070;10.012;2023-04-21T06:13:37;101906.38;;;9.30;100.00
30421;BME280;17218;54.070;10.012;2023-04-21T06:16:04;101901.38;;;9.41;100.00
30421;BME280;17218;54.070;10.012;2023-04-21T06:18:30;101905.78;;;9.47;100.00
30421;BME280;17218;54.070;10.012;2023-04-21T06:20:57;101903.31;;;9.54;100.00
30421;BME280;17218;54.070;10.012;2023-04-21T06:23:23;101904.31;;;9.63;100.00
30421;BME280;17218;54.070;10.012;2023-04-21T06:25:58;101899.25;;;9.71;100.00
30421;BME280;17218;54.070;10.012;2023-04-21T06:28:25;101892.47;;;9.81;100.00
30421;BME280;17218;54.070;10.012;2023-04-21T06:30:53;101892.59;;;9.87;100.00
30421;BME280;17218;54.070;10.012;2023-04-21T06:33:20;101893.53;;;9.95;100.00
30421;BME280;17218;54.070;10.012;2023-04-21T06:35:46;101897.03;;;9.99;100.00
30421;BME280;17218;54.070;10.012;2023-04-21T06:38:12;101896.28;;;10.06;100.00
30421;BME280;17218;54.070;10.012;2023-04-21T06:40:39;101883.41;;;10.11;100.00
30421;BME280;17218;54.070;10.012;2023-04-21T06:43:05;101885.25;;;10.21;100.00
30421;BME280;17218;54.070;10.012;2023-04-21T06:45:32;101893.81;;;10.17;100.00
30421;BME280;17218;54.070;10.012;2023-04-21T06:48:00;101886.97;;;10.21;100.00
30421;BME280;17218;54.070;10.012;2023-04-21T06:50:26;101881.88;;;10.27;100.00
30421;BME280;17218;54.070;10.012;2023-04-21T06:52:53;101885.53;;;10.45;100.00
30421;BME280;17218;54.070;10.012;2023-04-21T06:55:19;101875.28;;;10.51;100.00
30421;BME280;17218;54.070;10.012;2023-04-21T06:57:46;101871.91;;;10.58;100.00
30421;BME280;17218;54.070;10.012;2023-04-21T07:00:13;101880.66;;;10.68;100.00
30421;BME280;17218;54.070;10.012;2023-04-21T07:02:40;101877.25;;;10.72;100.00
30421;BME280;17218;54.070;10.012;2023-04-21T07:05:08;101869.59;;;10.83;100.00
30421;BME280;17218;54.070;10.012;2023-04-21T07:07:35;101880.06;;;10.96;100.00
30421;BME280;17218;54.070;10.012;2023-04-21T07:10:01;101878.41;;;11.06;100.00
30421;BME280;17218;54.070;10.012;2023-04-21T07:12:27;101881.88;;;11.08;100.00
30421;BME280;17218;54.070;10.012;2023-04-21T07:14:54;101872.38;;;11.08;100.00
30421;BME280;17218;54.070;10.012;2023-04-21T07:17:21;101866.38;;;11.14;100.00
30421;BME280;17218;54.070;10.012;2023-04-21T07:19:47;101871.69;;;11.28;100.00
30421;BME280;17218;54.070;10.012;2023-04-21T07:22:15;101870.09;;;11.46;100.00
30421;BME280;17218;54.070;10.012;2023-04-21T07:24:41;101862.41;;;11.59;100.00
30421;BME280;17218;54.070;10.012;2023-04-21T07:27:08;101870.25;;;11.71;100.00
30421;BME280;17218;54.070;10.012;2023-04-21T07:29:34;101875.50;;;11.80;100.00
30421;BME280;17218;54.070;10.012;2023-04-21T07:32:01;101870.31;;;11.79;100.00
30421;BME280;17218;54.070;10.012;2023-04-21T07:34:28;101868.66;;;11.93;100.00
30421;BME280;17218;54.070;10.012;2023-04-21T07:36:54;101860.03;;;12.02;100.00
30421;BME280;17218;54.070;10.012;2023-04-21T07:39:22;101867.06;;;12.16;100.00
30421;BME280;17218;54.070;10.012;2023-04-21T07:41:49;101865.38;;;12.26;100.00
30421;BME280;17218;54.070;10.012;2023-04-21T07:44:15;101868.84;;;12.39;100.00
30421;BME280;17218;54.070;10.012;2023-04-21T07:46:42;101863.72;;;12.53;100.00
30421;BME280;17218;54.070;10.012;2023-04-21T07:49:09;101855.94;;;12.64;100.00
30421;BME280;17218;54.070;10.012;2023-04-21T07:51:35;101855.09;;;12.81;100.00
30421;BME280;17218;54.070;10.012;2023-04-21T07:54:02;101855.09;;;12.82;100.00
30421;BME280;17218;54.070;10.012;2023-04-21T07:56:30;101857.72;;;12.87;100.00
30421;BME280;17218;54.070;10.012;2023-04-21T07:58:56;101849.06;;;12.94;100.00
30421;BME280;17218;54.070;10.012;2023-04-21T08:01:23;101848.16;;;12.97;100.00
30421;BME280;17218;54.070;10.012;2023-04-21T08:03:49;101849.91;;;13.01;100.00
30421;BME280;17218;54.070;10.012;2023-04-21T08:06:16;101846.44;;;13.04;100.00
30421;BME280;17218;54.070;10.012;2023-04-21T08:08:42;101843.84;;;13.19;100.00
30421;BME280;17218;54.070;10.012;2023-04-21T08:11:09;101844.69;;;13.35;100.00
30421;BME280;17218;54.070;10.012;2023-04-21T08:13:36;101842.06;;;13.51;100.00
30421;BME280;17218;54.070;10.012;2023-04-21T08:16:03;101846.41;;;13.68;100.00
30421;BME280;17218;54.070;10.012;2023-04-21T08:18:30;101841.13;;;13.88;100.00
30421;BME280;17218;54.070;10.012;2023-04-21T08:20:56;101839.38;;;14.00;100.00
30421;BME280;17218;54.070;10.012;2023-04-21T08:23:23;101839.31;;;14.11;100.00
30421;BME280;17218;54.070;10.012;2023-04-21T08:25:49;101834.13;;;14.01;100.00
30421;BME280;17218;54.070;10.012;2023-04-21T08:28:16;101828.91;;;14.03;100.00
30421;BME280;17218;54.070;10.012;2023-04-21T08:30:43;101827.97;;;14.15;100.00
30421;BME280;17218;54.070;10.012;2023-04-21T08:33:10;101821.84;;;14.27;100.00
30421;BME280;17218;54.070;10.012;2023-04-21T08:35:38;101825.19;;;14.49;100.00
30421;BME280;17218;54.070;10.012;2023-04-21T08:38:05;101822.47;;;14.70;100.00
30421;BME280;17218;54.070;10.012;2023-04-21T08:40:33;101821.44;;;14.93;100.00
30421;BME280;17218;54.070;10.012;2023-04-21T08:43:01;101828.22;;;15.11;100.00
30421;BME280;17218;54.070;10.012;2023-04-21T08:45:27;101816.13;;;15.05;100.00
30421;BME280;17218;54.070;10.012;2023-04-21T08:47:58;101823.91;;;15.08;100.00
30421;BME280;17218;54.070;10.012;2023-04-21T08:50:27;101818.72;;;15.07;100.00
30421;BME280;17218;54.070;10.012;2023-04-21T08:52:54;101823.78;;;15.25;100.00
30421;BME280;17218;54.070;10.012;2023-04-21T08:55:24;101821.91;;;15.37;100.00
30421;BME280;17218;54.070;10.012;2023-04-21T08:57:52;101811.44;;;15.40;97.83
30421;BME280;17218;54.070;10.012;2023-04-21T09:00:19;101817.28;;;15.64;99.70
30421;BME280;17218;54.070;10.012;2023-04-21T09:02:54;101818.66;;;15.95;100.00
30421;BME280;17218;54.070;10.012;2023-04-21T09:05:23;101814.28;;;15.97;100.00
30421;BME280;17218;54.070;10.012;2023-04-21T09:07:51;101816.84;;;16.02;97.13
30421;BME280;17218;54.070;10.012;2023-04-21T09:10:21;101815.91;;;16.07;94.83
30421;BME280;17218;54.070;10.012;2023-04-21T09:12:49;101810.56;;;16.15;92.38
30421;BME280;17218;54.070;10.012;2023-04-21T09:15:16;101808.59;;;16.31;96.91
30421;BME280;17218;54.070;10.012;2023-04-21T09:17:44;101822.34;;;16.46;89.67
30421;BME280;17218;54.070;10.012;2023-04-21T09:20:15;101814.59;;;16.40;89.04
30421;BME280;17218;54.070;10.012;2023-04-21T09:22:42;101810.25;;;16.39;93.55
30421;BME280;17218;54.070;10.012;2023-04-21T09:25:09;101820.50;;;16.54;94.97
30421;BME280;17218;54.070;10.012;2023-04-21T09:27:36;101817.75;;;16.62;96.70
30421;BME280;17218;54.070;10.012;2023-04-21T09:30:04;101816.81;;;16.66;96.68
30421;BME280;17218;54.070;10.012;2023-04-21T09:32:35;101816.09;;;16.56;89.63
30421;BME280;17218;54.070;10.012;2023-04-21T09:35:01;101806.19;;;16.76;94.35
30421;BME280;17218;54.070;10.012;2023-04-21T09:37:32;101804.25;;;16.87;91.18
30421;BME280;17218;54.070;10.012;2023-04-21T09:39:59;101804.00;;;17.01;89.30
30421;BME280;17218;54.070;10.012;2023-04-21T09:42:27;101806.50;;;17.09;83.79
30421;BME280;17218;54.070;10.012;2023-04-21T09:44:54;101807.19;;;17.22;82.85
30421;BME280;17218;54.070;10.012;2023-04-21T09:47:22;101800.88;;;17.34;83.79
30421;BME280;17218;54.070;10.012;2023-04-21T09:49:50;101805.09;;;17.42;87.11
30421;BME280;17218;54.070;10.012;2023-04-21T09:52:18;101810.16;;;17.51;85.43
30421;BME280;17218;54.070;10.012;2023-04-21T09:54:49;101799.78;;;17.45;81.30
30421;BME280;17218;54.070;10.012;2023-04-21T09:57:20;101798.59;;;17.15;84.33
30421;BME280;17218;54.070;10.012;2023-04-21T09:59:53;101802.25;;;17.03;83.66
30421;BME280;17218;54.070;10.012;2023-04-21T10:02:23;101790.78;;;17.12;84.68
30421;BME280;17218;54.070;10.012;2023-04-21T10:04:50;101798.28;;;17.33;86.36
30421;BME280;17218;54.070;10.012;2023-04-21T10:07:17;101792.47;;;17.61;88.04
30421;BME280;17218;54.070;10.012;2023-04-21T10:09:46;101783.22;;;17.87;84.32
30421;BME280;17218;54.070;10.012;2023-04-21T10:12:16;101780.94;;;17.71;81.38
30421;BME280;17218;54.070;10.012;2023-04-21T10:14:43;101775.06;;;18.01;81.08
30421;BME280;17218;54.070;10.012;2023-04-21T10:17:10;101775.53;;;18.20;80.44
30421;BME280;17218;54.070;10.012;2023-04-21T10:19:44;101771.59;;;18.39;77.46
30421;BME280;17218;54.070;10.012;2023-04-21T10:22:13;101766.09;;;18.50;77.07
30421;BME280;17218;54.070;10.012;2023-04-21T10:24:41;101773.22;;;18.44;74.62
30421;BME280;17218;54.070;10.012;2023-04-21T10:27:09;101763.16;;;18.64;73.47
30421;BME280;17218;54.070;10.012;2023-04-21T10:29:37;101765.31;;;18.82;71.44
30421;BME280;17218;54.070;10.012;2023-04-21T10:32:04;101757.41;;;18.84;70.19
30421;BME280;17218;54.070;10.012;2023-04-21T10:34:34;101754.00;;;18.80;70.01
30421;BME280;17218;54.070;10.012;2023-04-21T10:37:17;101757.13;;;18.95;69.43
30421;BME280;17218;54.070;10.012;2023-04-21T10:39:54;101752.00;;;18.89;69.00
30421;BME280;17218;54.070;10.012;2023-04-21T10:42:28;101744.03;;;18.93;68.22
30421;BME280;17218;54.070;10.012;2023-04-21T10:45:08;101752.94;;;19.21;71.31
30421;BME280;17218;54.070;10.012;2023-04-21T10:47:40;101740.47;;;19.60;74.78
30421;BME280;17218;54.070;10.012;2023-04-21T10:50:12;101733.31;;;19.94;69.02
30421;BME280;17218;54.070;10.012;2023-04-21T10:52:42;101737.53;;;20.28;66.09
30421;BME280;17218;54.070;10.012;2023-04-21T10:55:09;101737.25;;;19.80;61.11
30421;BME280;17218;54.070;10.012;2023-04-21T10:57:40;101732.13;;;19.75;64.09
30421;BME280;17218;54.070;10.012;2023-04-21T11:00:09;101725.72;;;19.84;61.68
30421;BME280;17218;54.070;10.012;2023-04-21T11:02:36;101725.34;;;19.97;64.63
30421;BME280;17218;54.070;10.012;2023-04-21T11:05:04;101724.31;;;20.01;58.42
30421;BME280;17218;54.070;10.012;2023-04-21T11:07:30;101732.47;;;20.22;59.23
30421;BME280;17218;54.070;10.012;2023-04-21T11:09:58;101718.97;;;20.60;62.22
30421;BME280;17218;54.070;10.012;2023-04-21T11:12:27;101711.63;;;20.95;62.01
30421;BME280;17218;54.070;10.012;2023-04-21T11:14:55;101713.72;;;21.35;60.88
30421;BME280;17218;54.070;10.012;2023-04-21T11:17:24;101707.69;;;21.78;57.57
30421;BME280;17218;54.070;10.012;2023-04-21T11:19:52;101700.69;;;21.77;55.53
30421;BME280;17218;54.070;10.012;2023-04-21T11:22:20;101704.38;;;22.17;55.76
30421;BME280;17218;54.070;10.012;2023-04-21T11:24:49;101709.19;;;22.72;54.75
30421;BME280;17218;54.070;10.012;2023-04-21T11:27:16;101701.22;;;23.33;51.69
30421;BME280;17218;54.070;10.012;2023-04-21T11:29:43;101694.09;;;24.28;47.47
30421;BME280;17218;54.070;10.012;2023-04-21T11:32:12;101699.28;;;25.33;43.55
30421;BME280;17218;54.070;10.012;2023-04-21T11:34:40;101689.53;;;25.66;41.18
30421;BME280;17218;54.070;10.012;2023-04-21T11:37:08;101688.09;;;27.26;40.41
30421;BME280;17218;54.070;10.012;2023-04-21T11:39:39;101687.03;;;27.98;39.06
30421;BME280;17218;54.070;10.012;2023-04-21T11:42:05;101675.91;;;29.35;36.09
30421;BME280;17218;54.070;10.012;2023-04-21T11:44:33;101673.75;;;29.90;33.09
30421;BME280;17218;54.070;10.012;2023-04-21T11:47:11;101674.94;;;29.85;33.45
30421;BME280;17218;54.070;10.012;2023-04-21T11:49:45;101677.19;;;30.62;31.36
30421;BME280;17218;54.070;10.012;2023-04-21T11:52:22;101671.59;;;29.21;33.24
30421;BME280;17218;54.070;10.012;2023-04-21T11:54:53;101673.31;;;30.89;31.17
30421;BME280;17218;54.070;10.012;2023-04-21T11:57:22;101664.16;;;31.59;30.29
30421;BME280;17218;54.070;10.012;2023-04-21T11:59:49;101661.03;;;32.08;28.84
30421;BME280;17218;54.070;10.012;2023-04-21T12:02:20;101665.41;;;33.13;27.75
30421;BME280;17218;54.070;10.012;2023-04-21T12:04:57;101659.81;;;32.75;28.21
30421;BME280;17218;54.070;10.012;2023-04-21T12:07:25;101650.59;;;33.39;27.77
30421;BME280;17218;54.070;10.012;2023-04-21T12:09:52;101645.75;;;32.30;28.51
30421;BME280;17218;54.070;10.012;2023-04-21T12:12:21;101640.00;;;31.71;30.52
30421;BME280;17218;54.070;10.012;2023-04-21T12:14:48;101648.53;;;32.19;28.67
30421;BME280;17218;54.070;10.012;2023-04-21T12:17:14;101645.22;;;33.29;28.09
30421;BME280;17218;54.070;10.012;2023-04-21T12:19:41;101636.88;;;32.30;27.70
30421;BME280;17218;54.070;10.012;2023-04-21T12:22:11;101637.88;;;33.31;27.46
30421;BME280;17218;54.070;10.012;2023-04-21T12:24:38;101632.66;;;33.49;26.28
30421;BME280;17218;54.070;10.012;2023-04-21T12:27:06;101627.00;;;33.42;27.06
30421;BME280;17218;54.070;10.012;2023-04-21T12:29:33;101627.84;;;33.33;26.15
30421;BME280;17218;54.070;10.012;2023-04-21T12:35:10;101612.03;;;32.59;27.57
30421;BME280;17218;54.070;10.012;2023-04-21T12:38:04;101618.69;;;34.23;26.00
30421;BME280;17218;54.070;10.012;2023-04-21T12:40:31;101620.31;;;34.72;26.24
30421;BME280;17218;54.070;10.012;2023-04-21T12:42:57;101621.78;;;35.31;25.39